createdAt,value
2023-02-23T00:04:18.936Z,99.16
2023-02-23T00:19:21.268Z,98.27
2023-02-23T00:34:22.036Z,98.38
2023-02-23T00:49:23.335Z,99.31
2023-02-23T01:04:24.287Z,98.58
2023-02-23T01:19:24.456Z,98.27
2023-02-23T01:34:25.134Z,98.42
2023-02-23T01:49:25.714Z,96.86
2023-02-23T02:04:27.697Z,96.29
2023-02-23T02:19:28.323Z,95.46
2023-02-23T02:34:28.918Z,93.43
2023-02-23T02:49:29.223Z,92.90
2023-02-23T03:04:30.235Z,91.70
2023-02-23T03:19:31.861Z,90.56
2023-02-23T03:34:32.972Z,88.90
2023-02-23T03:49:33.579Z,88.31
2023-02-23T04:04:34.155Z,86.49
2023-02-23T04:19:34.966Z,83.58
2023-02-23T04:34:35.356Z,80.18
2023-02-23T04:49:36.045Z,79.45
2023-02-23T05:04:37.054Z,78.45
2023-02-23T05:19:37.679Z,77.23
2023-02-23T05:34:37.846Z,75.57
2023-02-23T05:49:38.853Z,75.36
2023-02-23T06:04:39.519Z,74.25
2023-02-23T06:19:39.617Z,73.32
2023-02-23T06:34:40.238Z,69.70
2023-02-23T06:49:42.262Z,70.09
2023-02-23T07:04:42.437Z,69.43
2023-02-23T07:19:43.075Z,72.93
2023-02-23T07:34:43.731Z,76.23
2023-02-23T07:49:44.828Z,82.08
2023-02-23T08:04:44.944Z,89.34
2023-02-23T08:19:45.580Z,94.08
2023-02-23T08:34:46.129Z,99.99
2023-02-23T08:49:46.792Z,99.99
2023-02-23T09:04:47.791Z,99.99
2023-02-23T09:19:47.988Z,99.99
2023-02-23T09:34:48.948Z,99.99
2023-02-23T09:49:49.583Z,98.30
2023-02-23T10:04:50.265Z,96.01
2023-02-23T10:19:51.384Z,95.21
2023-02-23T10:34:52.403Z,93.37
2023-02-23T10:49:53.072Z,93.93
2023-02-23T11:04:55.668Z,94.56
2023-02-23T11:19:57.150Z,93.50
2023-02-23T11:34:57.424Z,93.25
2023-02-23T11:49:58.019Z,92.59
2023-02-23T12:05:01.093Z,94.58
2023-02-23T12:20:02.752Z,95.04
2023-02-23T12:35:04.300Z,95.10
2023-02-23T12:50:04.837Z,98.77
2023-02-23T13:05:05.001Z,94.95
2023-02-23T13:20:06.896Z,96.48
2023-02-23T13:35:07.484Z,98.57
2023-02-23T13:50:08.180Z,99.99
2023-02-23T14:05:08.754Z,99.99
2023-02-23T14:20:11.404Z,99.99
2023-02-23T14:35:13.985Z,99.99
2023-02-23T14:50:14.558Z,99.99
2023-02-23T15:05:14.932Z,99.99
2023-02-23T15:20:16.945Z,99.99
2023-02-23T15:35:18.030Z,99.99
2023-02-23T15:50:24.730Z,98.83
2023-02-23T16:05:25.787Z,96.31
2023-02-23T16:20:27.825Z,83.90
2023-02-23T16:35:29.685Z,71.14
2023-02-23T16:50:30.313Z,65.01
2023-02-23T17:05:30.904Z,60.63
2023-02-23T17:20:31.911Z,52.84
2023-02-23T17:35:32.099Z,45.75
2023-02-23T17:50:32.708Z,41.43
2023-02-23T18:05:33.280Z,36.00
2023-02-23T18:20:34.324Z,35.28
2023-02-23T18:35:34.496Z,34.35
2023-02-23T18:50:35.103Z,34.25
2023-02-23T19:05:35.675Z,33.12
2023-02-23T19:20:36.698Z,63.72
2023-02-23T19:35:36.876Z,56.34
2023-02-23T19:50:37.496Z,46.47
2023-02-23T20:05:38.160Z,40.00
2023-02-23T20:20:39.234Z,37.21
2023-02-23T20:35:40.189Z,34.65
2023-02-23T20:50:40.373Z,35.06
2023-02-23T21:05:40.533Z,34.45
2023-02-23T21:20:40.659Z,33.33
2023-02-23T21:35:41.652Z,33.33
2023-02-23T21:50:42.251Z,34.46
2023-02-23T22:05:42.462Z,35.28
2023-02-23T22:20:43.150Z,35.70
2023-02-23T22:35:43.716Z,34.77
2023-02-23T22:50:44.691Z,35.08
2023-02-23T23:05:44.844Z,35.80
2023-02-23T23:20:45.591Z,36.73
2023-02-23T23:35:45.985Z,39.02
2023-02-23T23:50:46.306Z,43.87
